Agios Rafail — SY4304 — position and weather

sailwx.info

Track history (hours):
 
Tides and Currents Weather Stations Pressure Air Temp Water Temp Dewpoint Dewpoint Depression Visibility Wind Speed Wind Dir Waves Ship Positions

Agios Rafail

Last reported at 2017-Nov-23 09:00 UTC. Time now 2017-Nov-23 09:28 UTC.
Position N 40°47' E 024°42'.

Length 80 m; draft 2.4 m.

Type: Passenger vessel. MMSI: 237740500.

Date/timePositionNaut miles runAvg speedWind from/ knotsBaromVisibWave heightAir tempDewpointWater temp
2017-Nov-23 09:00N 40°47' E 024°42'0 0.0
2017-Nov-23 08:30N 40°47' E 024°42'4 7.4
2017-Nov-23 08:00N 40°50' E 024°41'1 2.4
2017-Nov-23 07:26N 40°51' E 024°42'1 2.3
2017-Nov-23 07:00N 40°51' E 024°41'4 8.7
2017-Nov-23 06:30N 40°47' E 024°42'0 0.0
2017-Nov-23 05:58N 40°47' E 024°42'0 0.0
2017-Nov-23 05:28N 40°47' E 024°42'0 0.0
2017-Nov-23 04:53N 40°47' E 024°42'2 4.5
2017-Nov-23 04:30N 40°48' E 024°42'3 6.1
2017-Nov-23 04:00N 40°51' E 024°42'0 0.0
2017-Nov-23 03:30N 40°51' E 024°42'  
2017-Nov-19 11:55N 40°47' E 024°42'0 0.0
2017-Nov-19 11:19N 40°47' E 024°42'0 0.0
2017-Nov-19 11:00N 40°47' E 024°42'4 7.3
2017-Nov-19 10:30N 40°50' E 024°41'1 2.5
2017-Nov-19 09:58N 40°51' E 024°42'1 2.0
2017-Nov-19 09:30N 40°51' E 024°41'5 8.7
2017-Nov-19 08:59N 40°47' E 024°42'0 0.0
2017-Nov-19 08:29N 40°47' E 024°42'0 0.0
2017-Nov-19 07:59N 40°47' E 024°42'0 0.0
2017-Nov-19 07:29N 40°47' E 024°42'0 0.0
2017-Nov-19 06:59N 40°47' E 024°42'0 0.0
2017-Nov-19 06:29N 40°47' E 024°42'0 0.0
2017-Nov-19 05:59N 40°47' E 024°42'0 0.0
2017-Nov-19 05:30N 40°47' E 024°42'4 7.7
2017-Nov-19 05:00N 40°51' E 024°41'1 2.5
2017-Nov-19 04:30N 40°51' E 024°42'1 1.9
2017-Nov-19 04:00N 40°51' E 024°41'4 8.8
2017-Nov-19 03:30N 40°47' E 024°42'0 0.6
2017-Nov-19 03:00N 40°47' E 024°42'4 8.7
2017-Nov-19 02:30N 40°51' E 024°41'1 1.7
2017-Nov-19 01:58N 40°51' E 024°42'0 0.0
2017-Nov-17 14:28N 40°51' E 024°42'1 2.7
2017-Nov-17 14:00N 40°51' E 024°41'4 7.9
2017-Nov-17 13:30N 40°47' E 024°42'4 7.5
2017-Nov-17 13:00N 40°50' E 024°41'1 2.5
2017-Nov-17 12:30N 40°51' E 024°42'1 2.2
2017-Nov-17 12:00N 40°51' E 024°41'4 8.4
2017-Nov-17 11:30N 40°47' E 024°42'0 0.0
2017-Nov-17 11:00N 40°47' E 024°42'0 0.5
2017-Nov-17 10:30N 40°47' E 024°43'0 0.0
2017-Nov-16 14:29N 40°47' E 024°43'0 0.7
2017-Nov-16 14:00N 40°47' E 024°42'4 7.2
2017-Nov-16 13:30N 40°51' E 024°41'1 2.5
2017-Nov-16 13:00N 40°51' E 024°42'3 5.5
2017-Nov-16 12:30N 40°49' E 024°42'2 3.7
2017-Nov-16 11:58N 40°47' E 024°42'0 0.0
2017-Nov-16 11:28N 40°47' E 024°42'0 0.4
2017-Nov-16 11:01N 40°47' E 024°42'3 6.9
2017-Nov-16 10:30N 40°50' E 024°41'1 2.4
2017-Nov-16 09:58N 40°51' E 024°42'1 2.8
2017-Nov-16 09:30N 40°51' E 024°41'4 8.2
2017-Nov-16 09:00N 40°47' E 024°42'0 0.0
2017-Nov-16 08:30N 40°47' E 024°42'0 0.5
2017-Nov-16 07:59N 40°47' E 024°43'0 0.0
2017-Nov-15 08:38N 40°47' E 024°43'0 0.0
2017-Nov-15 08:29N 40°47' E 024°43'0 0.0
2017-Nov-15 07:59N 40°47' E 024°43'0 0.0
2017-Nov-15 07:29N 40°47' E 024°43'0 0.0
2017-Nov-15 06:59N 40°47' E 024°43'0 0.1
2017-Nov-15 06:30N 40°47' E 024°43'2 4.0
2017-Nov-15 06:00N 40°49' E 024°42'3 5.5
2017-Nov-15 05:30N 40°51' E 024°42'0 0.0
2017-Nov-15 04:59N 40°51' E 024°42'0 0.0
2017-Nov-14 17:58N 40°51' E 024°42'1 2.0
2017-Nov-14 17:30N 40°51' E 024°41'4 8.9
2017-Nov-14 17:00N 40°47' E 024°42'0 0.0
2017-Nov-14 16:30N 40°47' E 024°42'0 0.5
2017-Nov-14 15:58N 40°47' E 024°43'0 0.0
2017-Nov-14 15:28N 40°47' E 024°43'0 0.0
2017-Nov-14 14:58N 40°47' E 024°43'0 0.0
2017-Nov-14 14:28N 40°47' E 024°43'1 1.2
2017-Nov-14 14:00N 40°47' E 024°42'4 7.0
2017-Nov-14 13:30N 40°51' E 024°41'1 2.7
2017-Nov-14 12:59N 40°51' E 024°42'3 5.4
2017-Nov-14 12:30N 40°49' E 024°42'2 4.0
2017-Nov-14 11:58N 40°47' E 024°42'0 0.6
2017-Nov-14 11:30N 40°47' E 024°43'0 0.0
2017-Nov-14 10:57N 40°47' E 024°43'  
Track history (hours):
 
Tides and Currents Weather Stations Pressure Air Temp Water Temp Dewpoint Dewpoint Depression Visibility Wind Speed Wind Dir Waves Ship Positions

Agios Rafail

Last reported at 2017-Nov-23 09:00 UTC. Time now 2017-Nov-23 09:28 UTC.
Position N 40°47' E 024°42'.

Length 80 m; draft 2.4 m.

Type: Passenger vessel. MMSI: 237740500.

Date/timePositionNaut miles runAvg speedWind from/ knotsBaromVisibWave heightAir tempDewpointWater temp
2017-Nov-23 09:00N 40°47' E 024°42'0 0.0
2017-Nov-23 08:30N 40°47' E 024°42'4 7.4
2017-Nov-23 08:00N 40°50' E 024°41'1 2.4
2017-Nov-23 07:26N 40°51' E 024°42'1 2.3
2017-Nov-23 07:00N 40°51' E 024°41'4 8.7
2017-Nov-23 06:30N 40°47' E 024°42'0 0.0
2017-Nov-23 05:58N 40°47' E 024°42'0 0.0
2017-Nov-23 05:28N 40°47' E 024°42'0 0.0
2017-Nov-23 04:53N 40°47' E 024°42'2 4.5
2017-Nov-23 04:30N 40°48' E 024°42'3 6.1
2017-Nov-23 04:00N 40°51' E 024°42'0 0.0
2017-Nov-23 03:30N 40°51' E 024°42'  
2017-Nov-19 11:55N 40°47' E 024°42'0 0.0
2017-Nov-19 11:19N 40°47' E 024°42'0 0.0
2017-Nov-19 11:00N 40°47' E 024°42'4 7.3
2017-Nov-19 10:30N 40°50' E 024°41'1 2.5
2017-Nov-19 09:58N 40°51' E 024°42'1 2.0
2017-Nov-19 09:30N 40°51' E 024°41'5 8.7
2017-Nov-19 08:59N 40°47' E 024°42'0 0.0
2017-Nov-19 08:29N 40°47' E 024°42'0 0.0
2017-Nov-19 07:59N 40°47' E 024°42'0 0.0
2017-Nov-19 07:29N 40°47' E 024°42'0 0.0
2017-Nov-19 06:59N 40°47' E 024°42'0 0.0
2017-Nov-19 06:29N 40°47' E 024°42'0 0.0
2017-Nov-19 05:59N 40°47' E 024°42'0 0.0
2017-Nov-19 05:30N 40°47' E 024°42'4 7.7
2017-Nov-19 05:00N 40°51' E 024°41'1 2.5
2017-Nov-19 04:30N 40°51' E 024°42'1 1.9
2017-Nov-19 04:00N 40°51' E 024°41'4 8.8
2017-Nov-19 03:30N 40°47' E 024°42'0 0.6
2017-Nov-19 03:00N 40°47' E 024°42'4 8.7
2017-Nov-19 02:30N 40°51' E 024°41'1 1.7
2017-Nov-19 01:58N 40°51' E 024°42'0 0.0
2017-Nov-17 14:28N 40°51' E 024°42'1 2.7
2017-Nov-17 14:00N 40°51' E 024°41'4 7.9
2017-Nov-17 13:30N 40°47' E 024°42'4 7.5
2017-Nov-17 13:00N 40°50' E 024°41'1 2.5
2017-Nov-17 12:30N 40°51' E 024°42'1 2.2
2017-Nov-17 12:00N 40°51' E 024°41'4 8.4
2017-Nov-17 11:30N 40°47' E 024°42'0 0.0
2017-Nov-17 11:00N 40°47' E 024°42'0 0.5
2017-Nov-17 10:30N 40°47' E 024°43'0 0.0
2017-Nov-16 14:29N 40°47' E 024°43'0 0.7
2017-Nov-16 14:00N 40°47' E 024°42'4 7.2
2017-Nov-16 13:30N 40°51' E 024°41'1 2.5
2017-Nov-16 13:00N 40°51' E 024°42'3 5.5
2017-Nov-16 12:30N 40°49' E 024°42'2 3.7
2017-Nov-16 11:58N 40°47' E 024°42'0 0.0
2017-Nov-16 11:28N 40°47' E 024°42'0 0.4
2017-Nov-16 11:01N 40°47' E 024°42'3 6.9
2017-Nov-16 10:30N 40°50' E 024°41'1 2.4
2017-Nov-16 09:58N 40°51' E 024°42'1 2.8
2017-Nov-16 09:30N 40°51' E 024°41'4 8.2
2017-Nov-16 09:00N 40°47' E 024°42'0 0.0
2017-Nov-16 08:30N 40°47' E 024°42'0 0.5
2017-Nov-16 07:59N 40°47' E 024°43'0 0.0
2017-Nov-15 08:38N 40°47' E 024°43'0 0.0
2017-Nov-15 08:29N 40°47' E 024°43'0 0.0
2017-Nov-15 07:59N 40°47' E 024°43'0 0.0
2017-Nov-15 07:29N 40°47' E 024°43'0 0.0
2017-Nov-15 06:59N 40°47' E 024°43'0 0.1
2017-Nov-15 06:30N 40°47' E 024°43'2 4.0
2017-Nov-15 06:00N 40°49' E 024°42'3 5.5
2017-Nov-15 05:30N 40°51' E 024°42'0 0.0
2017-Nov-15 04:59N 40°51' E 024°42'0 0.0
2017-Nov-14 17:58N 40°51' E 024°42'1 2.0
2017-Nov-14 17:30N 40°51' E 024°41'4 8.9
2017-Nov-14 17:00N 40°47' E 024°42'0 0.0
2017-Nov-14 16:30N 40°47' E 024°42'0 0.5
2017-Nov-14 15:58N 40°47' E 024°43'0 0.0
2017-Nov-14 15:28N 40°47' E 024°43'0 0.0
2017-Nov-14 14:58N 40°47' E 024°43'0 0.0
2017-Nov-14 14:28N 40°47' E 024°43'1 1.2
2017-Nov-14 14:00N 40°47' E 024°42'4 7.0
2017-Nov-14 13:30N 40°51' E 024°41'1 2.7
2017-Nov-14 12:59N 40°51' E 024°42'3 5.4
2017-Nov-14 12:30N 40°49' E 024°42'2 4.0
2017-Nov-14 11:58N 40°47' E 024°42'0 0.6
2017-Nov-14 11:30N 40°47' E 024°43'0 0.0
2017-Nov-14 10:57N 40°47' E 024°43'  

Dump ship's entire track history